Time;durP1;ratioP1;P1;durP2;ratioP2;P2;SDS_P1;SDS_P2;PMS_P1;PMS_P2;Temp;Humidity;BMP_temperature;BMP_pressure;BME280_temperature;BME280_humidity;BME280_pressure;Samples;Min_cycle;Max_cycle;Signal;HPM_P1;HPM_P2
2024/02/08 00:00:00;;;;;;;0.55;0.55;;;;;;;12.02;70.97;95876.13;4970728;28;20018;-81
2024/02/08 00:02:26;;;;;;;0.60;0.60;;;;;;;11.76;72.28;95880.91;4965380;28;20531;-80
2024/02/08 00:04:51;;;;;;;0.63;0.50;;;;;;;11.91;71.13;95874.72;4974460;28;20023;-82
2024/02/08 00:07:17;;;;;;;0.55;0.38;;;;;;;11.72;71.25;95859.84;4957486;28;20629;-82
2024/02/08 00:09:42;;;;;;;0.85;0.50;;;;;;;11.81;70.64;95855.53;4973114;28;20062;-84
2024/02/08 00:12:08;;;;;;;1.75;0.50;;;;;;;12.00;70.89;95873.03;4971428;28;20345;-83
2024/02/08 00:14:34;;;;;;;0.40;0.40;;;;;;;12.04;70.66;95879.22;4966862;28;20118;-83
2024/02/08 00:17:01;;;;;;;0.50;0.50;;;;;;;12.15;70.43;95878.00;4972829;28;20554;-83
2024/02/08 00:19:28;;;;;;;0.30;0.30;;;;;;;12.12;70.90;95880.41;4937737;28;20059;-83
2024/02/08 00:21:55;;;;;;;0.57;0.55;;;;;;;12.17;70.53;95878.47;4942017;28;20093;-84
2024/02/08 00:24:20;;;;;;;0.65;0.63;;;;;;;12.18;70.89;95876.63;4957869;28;20035;-83
2024/02/08 00:26:45;;;;;;;0.90;0.50;;;;;;;12.11;71.35;95879.59;4949845;28;20053;-82
2024/02/08 00:29:11;;;;;;;0.38;0.30;;;;;;;11.96;70.66;95859.78;4957667;28;20034;-83
2024/02/08 00:31:36;;;;;;;0.30;0.30;;;;;;;12.18;70.78;95874.81;4975599;28;20474;-84
2024/02/08 00:34:01;;;;;;;1.00;0.50;;;;;;;12.16;70.83;95876.16;4962895;28;20139;-84
2024/02/08 00:36:27;;;;;;;0.73;0.68;;;;;;;11.88;71.75;95844.75;4955669;28;20038;-83
2024/02/08 00:38:52;;;;;;;0.40;0.40;;;;;;;11.96;71.58;95857.16;4962196;28;20096;-84
2024/02/08 00:41:22;;;;;;;0.40;0.40;;;;;;;12.14;71.20;95868.59;4961731;28;20034;-82
2024/02/08 00:43:47;;;;;;;0.50;0.30;;;;;;;12.01;71.81;95856.28;4974788;28;20487;-83
2024/02/08 00:46:13;;;;;;;0.40;0.35;;;;;;;12.15;70.92;95870.16;4962375;28;20027;-82
2024/02/08 00:48:43;;;;;;;0.40;0.40;;;;;;;12.05;71.11;95854.69;4961099;28;20529;-83
2024/02/08 00:51:11;;;;;;;0.40;0.40;;;;;;;12.20;70.81;95861.50;4965075;28;20039;-83
2024/02/08 00:53:36;;;;;;;0.30;0.30;;;;;;;12.20;71.44;95865.91;4950115;28;20045;-83
2024/02/08 00:56:02;;;;;;;0.30;0.30;;;;;;;12.25;71.21;95868.44;4972869;28;20491;-83
2024/02/08 00:58:28;;;;;;;0.70;0.40;;;;;;;12.14;71.12;95858.16;4959067;28;20045;-83
2024/02/08 01:00:53;;;;;;;0.35;0.30;;;;;;;12.21;70.50;95865.63;4949431;28;20039;-82
2024/02/08 01:03:19;;;;;;;0.30;0.30;;;;;;;12.06;72.05;95853.59;4966737;28;20053;-85
2024/02/08 01:05:51;;;;;;;0.30;0.30;;;;;;;12.32;70.39;95863.63;4963065;28;20055;-84
2024/02/08 01:08:17;;;;;;;0.30;0.30;;;;;;;12.44;70.29;95868.38;4954558;28;20038;-82
2024/02/08 01:10:42;;;;;;;0.30;0.20;;;;;;;12.21;71.40;95864.88;4967239;28;20033;-82
2024/02/08 01:13:08;;;;;;;0.63;0.30;;;;;;;12.06;71.85;95852.84;4970114;28;20406;-82
2024/02/08 01:15:35;;;;;;;0.30;0.30;;;;;;;12.32;70.05;95853.16;4953970;28;20056;-82
2024/02/08 01:18:03;;;;;;;0.60;0.32;;;;;;;12.20;71.47;95845.03;4995368;28;20043;-82
2024/02/08 01:20:29;;;;;;;0.30;0.30;;;;;;;12.26;70.62;95855.09;4973467;28;20054;-82
2024/02/08 01:22:54;;;;;;;0.30;0.30;;;;;;;12.20;71.32;95840.63;4965137;28;20135;-83
2024/02/08 01:25:20;;;;;;;0.30;0.30;;;;;;;12.29;70.60;95864.22;4956447;28;20417;-81
2024/02/08 01:27:45;;;;;;;0.30;0.30;;;;;;;12.21;71.32;95870.09;4940887;28;20035;-82
2024/02/08 01:30:13;;;;;;;0.20;0.20;;;;;;;12.35;70.97;95869.06;4957305;28;20482;-83
2024/02/08 01:32:39;;;;;;;0.35;0.30;;;;;;;12.22;71.47;95863.78;4975509;28;20037;-83
2024/02/08 01:35:06;;;;;;;0.45;0.30;;;;;;;11.98;72.02;95869.94;4936562;28;20030;-82
2024/02/08 01:37:38;;;;;;;0.20;0.20;;;;;;;12.16;71.62;95874.31;4947402;28;20035;-82
2024/02/08 01:40:06;;;;;;;0.20;0.20;;;;;;;12.46;70.70;95867.03;4960556;28;20428;-82
2024/02/08 01:42:32;;;;;;;0.22;0.22;;;;;;;12.42;70.07;95862.66;4967265;28;20038;-83
2024/02/08 01:45:29;;;;;;;0.20;0.20;;;;;;;12.60;69.71;95864.44;4957647;28;20103;-82
2024/02/08 01:48:09;;;;;;;0.20;0.20;;;;;;;12.22;71.68;95858.56;4983511;28;20047;-82
2024/02/08 01:50:37;;;;;;;0.20;0.20;;;;;;;12.38;70.17;95865.09;4955881;28;20030;-84
2024/02/08 01:53:03;;;;;;;0.20;0.20;;;;;;;12.44;71.15;95860.53;4991973;28;20517;-82
2024/02/08 01:55:36;;;;;;;0.20;0.20;;;;;;;12.45;70.80;95860.25;4958507;28;20394;-83
2024/02/08 01:58:07;;;;;;;0.40;0.30;;;;;;;12.37;70.86;95863.53;4958991;28;20235;-83
2024/02/08 02:00:38;;;;;;;0.28;0.25;;;;;;;12.33;71.47;95859.94;4958841;28;20121;-82
2024/02/08 02:03:12;;;;;;;0.32;0.20;;;;;;;12.40;71.93;95876.00;4961071;28;20561;-82
2024/02/08 02:05:42;;;;;;;0.30;0.30;;;;;;;12.44;70.22;95856.13;4949514;28;20454;-83
2024/02/08 02:08:09;;;;;;;0.20;0.20;;;;;;;12.52;70.33;95867.72;4979815;28;20061;-85
2024/02/08 02:10:34;;;;;;;0.30;0.30;;;;;;;12.42;70.85;95863.44;4967971;28;20046;-83
2024/02/08 02:13:01;;;;;;;0.40;0.20;;;;;;;12.15;71.90;95856.34;4979447;28;20559;-84
2024/02/08 02:15:31;;;;;;;0.25;0.25;;;;;;;12.34;70.83;95851.06;4945114;28;20061;-86
2024/02/08 02:18:01;;;;;;;0.20;0.20;;;;;;;12.62;71.01;95856.31;4949725;28;20052;-84
2024/02/08 02:20:29;;;;;;;0.30;0.30;;;;;;;12.55;70.27;95860.06;4971664;28;20043;-84
2024/02/08 02:23:03;;;;;;;0.75;0.20;;;;;;;12.73;70.44;95852.44;4974306;28;20040;-85
2024/02/08 02:25:29;;;;;;;0.40;0.35;;;;;;;12.54;71.22;95853.31;4956866;28;20145;-84
2024/02/08 02:28:02;;;;;;;0.20;0.20;;;;;;;12.59;70.50;95842.00;4980467;28;20432;-86
2024/02/08 02:30:28;;;;;;;0.32;0.32;;;;;;;12.66;70.17;95842.41;4962595;28;20486;-85
2024/02/08 02:32:55;;;;;;;0.38;0.30;;;;;;;12.58;70.35;95829.22;4958827;28;20866;-85
2024/02/08 02:35:22;;;;;;;0.20;0.20;;;;;;;12.62;70.99;95835.44;4960243;28;20085;-86
2024/02/08 02:37:49;;;;;;;0.25;0.25;;;;;;;12.61;71.06;95833.88;4942618;28;20034;-84
2024/02/08 02:40:22;;;;;;;0.45;0.45;;;;;;;12.70;70.78;95842.59;4953576;28;20031;-88
2024/02/08 02:42:52;;;;;;;0.30;0.30;;;;;;;12.73;70.71;95839.38;4955717;28;20121;-84
2024/02/08 02:45:23;;;;;;;0.30;0.30;;;;;;;12.50;70.89;95826.22;4955964;28;20039;-84
2024/02/08 02:47:49;;;;;;;0.30;0.30;;;;;;;12.62;70.80;95830.97;4950339;28;20031;-83
2024/02/08 02:50:17;;;;;;;0.38;0.38;;;;;;;12.52;71.03;95813.66;4945443;28;20042;-85
2024/02/08 02:52:45;;;;;;;0.43;0.20;;;;;;;12.55;71.27;95820.91;4961054;28;20125;-83
2024/02/08 02:55:12;;;;;;;0.20;0.20;;;;;;;12.54;71.02;95824.59;4980716;28;20117;-86
2024/02/08 02:57:38;;;;;;;0.90;0.20;;;;;;;12.57;70.49;95817.25;4960177;28;20039;-84
2024/02/08 03:00:15;;;;;;;0.40;0.20;;;;;;;12.74;69.83;95820.03;4964911;28;20037;-85
2024/02/08 03:02:41;;;;;;;0.50;0.28;;;;;;;12.57;71.21;95817.25;4964376;28;20039;-87
2024/02/08 03:05:06;;;;;;;0.30;0.30;;;;;;;12.64;71.05;95825.47;4963584;28;20391;-86
2024/02/08 03:07:32;;;;;;;0.40;0.40;;;;;;;12.68;70.02;95806.31;4939508;28;20662;-84
2024/02/08 03:09:57;;;;;;;0.30;0.30;;;;;;;12.46;71.06;95807.00;5010359;28;20045;-85
2024/02/08 03:12:23;;;;;;;0.40;0.38;;;;;;;12.67;70.93;95814.44;4966479;28;20026;-85
2024/02/08 03:14:58;;;;;;;0.32;0.32;;;;;;;12.79;70.46;95817.34;4969747;28;20034;-86
2024/02/08 03:17:24;;;;;;;;;;;;;;;12.69;70.40;95820.16;4978754;28;20520;-84
2024/02/08 03:19:49;;;;;;;0.30;0.30;;;;;;;12.54;71.63;95814.16;4957541;28;19918;-85
2024/02/08 03:22:18;;;;;;;0.30;0.30;;;;;;;12.57;71.87;95814.63;4945247;28;20038;-84
2024/02/08 03:24:44;;;;;;;0.35;0.30;;;;;;;12.61;71.02;95815.59;4968391;28;20069;-85
2024/02/08 03:27:13;;;;;;;0.40;0.40;;;;;;;12.71;70.78;95820.63;4965291;28;20046;-84
2024/02/08 03:29:41;;;;;;;0.30;0.30;;;;;;;12.67;70.45;95806.59;4959008;28;20038;-86
2024/02/08 03:32:07;;;;;;;0.30;0.30;;;;;;;12.59;71.26;95822.94;4948572;28;20506;-85
2024/02/08 03:34:35;;;;;;;0.35;0.35;;;;;;;12.55;71.86;95805.25;4941896;28;20433;-84
2024/02/08 03:37:03;;;;;;;1.48;0.25;;;;;;;12.62;71.30;95804.09;4943170;28;20112;-85
2024/02/08 03:39:29;;;;;;;0.40;0.20;;;;;;;12.67;69.92;95807.38;4949317;28;20322;-86
2024/02/08 03:42:07;;;;;;;0.20;0.20;;;;;;;12.62;71.35;95811.94;4977371;28;20111;-85
2024/02/08 03:44:33;;;;;;;0.30;0.30;;;;;;;12.42;72.79;95800.78;4970594;28;20109;-86
2024/02/08 03:47:04;;;;;;;0.35;0.35;;;;;;;12.54;71.94;95797.69;4956874;28;20039;-84
2024/02/08 03:49:36;;;;;;;0.20;0.20;;;;;;;12.61;71.55;95800.72;4963199;28;20058;-85
2024/02/08 03:52:08;;;;;;;0.38;0.38;;;;;;;12.80;70.74;95803.22;4973815;28;20042;-85
2024/02/08 03:54:36;;;;;;;0.43;0.30;;;;;;;12.70;71.08;95803.41;4966309;28;20436;-84
2024/02/08 03:57:07;;;;;;;0.20;0.20;;;;;;;12.70;71.80;95806.03;4951110;28;20419;-84
2024/02/08 03:59:33;;;;;;;0.60;0.30;;;;;;;12.58;70.77;95809.13;4944529;28;20030;-85
2024/02/08 04:02:05;;;;;;;0.17;0.17;;;;;;;12.57;72.23;95798.97;4962834;28;20038;-85
2024/02/08 04:04:59;;;;;;;0.63;0.20;;;;;;;12.44;72.05;95793.47;4945424;28;20027;-89
2024/02/08 04:10:19;;;;;;;0.30;0.20;;;;;;;12.72;71.44;95793.44;4959102;28;20389;-87
2024/02/08 04:53:55;;;;;;;0.20;0.20;;;;;;;12.78;70.62;95791.50;4953520;28;20076;-86
2024/02/08 04:56:21;;;;;;;0.50;0.20;;;;;;;12.60;71.05;95785.34;4971109;28;20027;-84
2024/02/08 04:58:46;;;;;;;0.47;0.30;;;;;;;12.70;71.31;95788.53;4973105;28;20113;-86
2024/02/08 05:01:12;;;;;;;1.38;0.30;;;;;;;12.64;70.81;95796.75;4965736;28;20041;-85
2024/02/08 05:03:42;;;;;;;0.15;0.15;;;;;;;12.58;71.69;95792.66;4970386;28;20390;-85
2024/02/08 05:06:14;;;;;;;0.20;0.20;;;;;;;12.62;70.87;95781.34;4947955;28;20114;-86
2024/02/08 05:08:44;;;;;;;0.20;0.20;;;;;;;12.70;71.22;95779.91;4945086;28;20529;-85
2024/02/08 05:11:11;;;;;;;0.20;0.20;;;;;;;12.61;71.53;95784.25;4958385;28;20034;-85
2024/02/08 05:13:40;;;;;;;0.43;0.30;;;;;;;12.69;70.85;95765.31;4952271;28;20035;-88
2024/02/08 05:16:07;;;;;;;0.20;0.20;;;;;;;12.69;70.09;95760.09;4949478;28;20104;-86
2024/02/08 05:18:32;;;;;;;0.20;0.20;;;;;;;12.67;70.28;95767.44;4966652;28;20403;-88
2024/02/08 05:20:58;;;;;;;0.20;0.20;;;;;;;12.70;71.27;95772.09;4965196;28;20042;-85
2024/02/08 05:23:26;;;;;;;1.88;0.20;;;;;;;12.49;71.03;95759.44;4962619;28;20031;-86
2024/02/08 05:25:52;;;;;;;0.30;0.30;;;;;;;12.66;71.16;95761.44;4956877;28;20034;-85
2024/02/08 05:28:22;;;;;;;0.68;0.30;;;;;;;12.73;70.29;95764.44;4943996;28;20035;-85
2024/02/08 05:30:50;;;;;;;0.32;0.28;;;;;;;12.41;71.23;95756.72;4969712;28;20038;-86
2024/02/08 05:33:15;;;;;;;0.30;0.30;;;;;;;12.55;70.83;95766.09;4967049;28;20052;-88
2024/02/08 05:35:44;;;;;;;0.45;0.32;;;;;;;12.47;71.79;95761.53;4966022;28;20407;-84
2024/02/08 05:38:10;;;;;;;0.28;0.28;;;;;;;12.52;70.96;95763.28;4960814;28;20380;-82
2024/02/08 05:40:40;;;;;;;0.60;0.30;;;;;;;12.59;71.55;95752.44;4963555;28;20034;-86
2024/02/08 05:43:07;;;;;;;1.05;0.30;;;;;;;12.64;70.92;95765.41;4975999;28;20049;-82
2024/02/08 05:45:33;;;;;;;0.30;0.30;;;;;;;12.59;70.93;95755.06;4937877;28;20083;-82
2024/02/08 05:48:05;;;;;;;0.40;0.28;;;;;;;12.63;71.04;95766.47;4977822;28;20043;-85
2024/02/08 05:50:32;;;;;;;0.30;0.20;;;;;;;12.70;71.06;95754.56;4940633;28;20026;-87
2024/02/08 05:52:58;;;;;;;0.38;0.30;;;;;;;12.80;70.51;95764.03;4974928;28;20034;-86
2024/02/08 05:55:26;;;;;;;0.20;0.20;;;;;;;12.76;70.05;95760.44;4955564;28;20394;-86
2024/02/08 05:57:52;;;;;;;0.22;0.22;;;;;;;12.62;71.34;95764.94;4951354;28;20042;-87
2024/02/08 06:00:45;;;;;;;0.35;0.20;;;;;;;12.69;71.08;95758.22;4963445;28;20022;-84
2024/02/08 06:03:17;;;;;;;0.45;0.30;;;;;;;12.43;71.68;95750.16;4970272;28;20043;-86
2024/02/08 06:05:49;;;;;;;0.80;0.20;;;;;;;12.68;71.05;95764.53;4960414;28;20027;-86
2024/02/08 06:08:25;;;;;;;0.30;0.30;;;;;;;12.72;70.37;95752.44;4945095;28;20065;-86
2024/02/08 06:10:52;;;;;;;0.30;0.20;;;;;;;12.52;71.73;95758.06;4956138;28;20112;-85
2024/02/08 06:13:22;;;;;;;0.40;0.30;;;;;;;12.65;70.87;95746.06;4962406;28;20038;-86
2024/02/08 06:15:50;;;;;;;0.77;0.40;;;;;;;12.59;70.81;95734.94;4965590;28;20487;-85
2024/02/08 06:18:24;;;;;;;0.45;0.40;;;;;;;12.72;70.40;95743.84;4957820;28;20034;-85
2024/02/08 06:20:59;;;;;;;0.43;0.40;;;;;;;12.80;70.19;95748.38;4960823;28;20030;-87
2024/02/08 06:23:34;;;;;;;0.47;0.45;;;;;;;12.50;71.33;95731.47;4971467;28;20046;-88
2024/02/08 06:28:53;;;;;;;1.05;0.40;;;;;;;12.67;71.32;95733.50;4960641;28;20057;-85
2024/02/08 06:31:19;;;;;;;0.70;0.47;;;;;;;12.51;70.92;95735.66;4937007;28;20072;-86
2024/02/08 06:36:40;;;;;;;0.87;0.60;;;;;;;12.80;71.09;95748.38;4968057;28;20085;-85
2024/02/08 06:39:23;;;;;;;1.40;0.63;;;;;;;12.76;70.63;95754.47;4959504;28;20045;-85
2024/02/08 06:41:53;;;;;;;1.20;0.60;;;;;;;12.80;70.83;95755.41;4948745;28;20130;-84
2024/02/08 06:47:18;;;;;;;1.40;0.90;;;;;;;12.69;70.69;95755.63;4967050;28;20039;-85
2024/02/08 07:41:53;;;;;;;2.28;1.27;;;;;;;12.66;71.66;95742.38;4973105;28;20038;-86
2024/02/08 07:44:23;;;;;;;1.85;1.50;;;;;;;12.59;71.31;95737.56;4970077;28;20034;-84
2024/02/08 07:46:54;;;;;;;1.63;1.30;;;;;;;12.76;71.11;95731.72;4983265;28;20040;-85
2024/02/08 07:49:23;;;;;;;2.60;1.70;;;;;;;12.81;70.75;95729.00;4976746;28;20045;-82
2024/02/08 07:51:58;;;;;;;1.95;1.67;;;;;;;12.82;71.34;95746.22;4970880;28;20038;-83
2024/02/08 07:54:24;;;;;;;1.92;1.70;;;;;;;12.73;71.52;95745.38;4955748;28;20498;-82
2024/02/08 07:56:53;;;;;;;3.67;1.75;;;;;;;12.58;71.63;95724.78;4951152;28;20035;-84
2024/02/08 07:59:26;;;;;;;1.73;1.48;;;;;;;12.75;70.62;95738.03;4965625;28;20030;-85
2024/02/08 08:01:53;;;;;;;1.60;1.30;;;;;;;12.45;71.67;95744.63;4975723;28;20035;-82
2024/02/08 08:05:14;;;;;;;1.85;1.35;;;;;;;12.52;71.55;95722.28;4974098;28;20039;-82
2024/02/08 08:07:09;;;;;;;1.30;1.20;;;;;;;12.76;70.58;95752.63;4972798;28;20207;-87
2024/02/08 08:09:36;;;;;;;1.40;1.30;;;;;;;12.74;71.48;95739.09;4961988;28;20026;-83
2024/02/08 08:12:05;;;;;;;1.42;1.30;;;;;;;12.77;71.20;95735.13;4950303;28;20501;-83
2024/02/08 08:19:44;;;;;;;1.83;1.73;;;;;;;12.68;71.14;95746.25;4952695;28;20046;-80
2024/02/08 08:22:19;;;;;;;1.70;1.10;;;;;;;12.96;71.20;95756.66;4967752;28;20046;-83
2024/02/08 08:25:11;;;;;;;2.00;1.80;;;;;;;12.66;71.58;95751.00;4939122;28;20019;-82
2024/02/08 08:30:29;;;;;;;1.75;1.65;;;;;;;12.62;71.26;95744.03;4970633;28;20042;-84
2024/02/08 08:40:49;;;;;;;2.50;1.42;;;;;;;12.85;71.90;95740.44;4964710;28;20035;-82
2024/02/08 08:43:24;;;;;;;1.75;1.58;;;;;;;12.68;71.31;95724.56;4942588;28;20054;-83
2024/02/08 08:45:51;;;;;;;2.85;1.45;;;;;;;12.84;71.39;95740.72;4974657;28;20356;-82
2024/02/08 08:48:20;;;;;;;2.63;1.50;;;;;;;12.76;71.99;95744.78;4962003;28;20422;-82
2024/02/08 08:50:55;;;;;;;1.13;1.02;;;;;;;12.87;72.02;95732.31;4941980;28;20031;-81
2024/02/08 08:53:41;;;;;;;1.40;1.10;;;;;;;12.80;70.89;95726.69;4968993;28;20085;-84
2024/02/08 08:56:10;;;;;;;1.13;1.00;;;;;;;12.85;71.55;95729.19;4960389;28;20130;-81
2024/02/08 08:58:39;;;;;;;1.33;1.17;;;;;;;12.93;70.84;95724.03;4935798;28;20038;-82
2024/02/08 09:01:15;;;;;;;0.90;0.70;;;;;;;13.08;71.21;95732.63;4971893;28;20128;-82
2024/02/08 09:03:41;;;;;;;0.80;0.70;;;;;;;12.81;71.32;95720.41;4971035;28;20046;-84
2024/02/08 09:06:12;;;;;;;1.17;1.00;;;;;;;12.92;71.93;95721.75;4968842;28;20509;-83
2024/02/08 09:08:54;;;;;;;1.27;0.82;;;;;;;12.89;71.34;95730.16;4957711;28;20122;-83
2024/02/08 09:11:24;;;;;;;0.90;0.70;;;;;;;13.03;71.15;95732.72;4972004;28;20027;-83
2024/02/08 09:13:54;;;;;;;2.33;0.73;;;;;;;12.90;70.56;95711.59;4959783;28;20028;-83
2024/02/08 09:21:32;;;;;;;1.05;0.40;;;;;;;12.99;70.19;95705.63;4969928;28;21269;-83
2024/02/08 09:24:04;;;;;;;0.60;0.50;;;;;;;12.85;71.43;95719.53;4949765;28;20031;-83
2024/02/08 09:27:25;;;;;;;0.52;0.40;;;;;;;13.02;70.86;95713.69;4967163;28;21917;-85
2024/02/08 09:29:25;;;;;;;0.82;0.50;;;;;;;13.01;71.33;95722.56;4956460;28;20123;-86
2024/02/08 09:31:57;;;;;;;0.80;0.50;;;;;;;12.95;71.87;95717.75;4960115;28;20034;-89
2024/02/08 09:34:38;;;;;;;1.42;0.35;;;;;;;13.06;71.47;95706.78;4969321;28;20030;-85
2024/02/08 09:37:06;;;;;;;0.68;0.40;;;;;;;13.06;70.79;95703.41;4950713;28;20125;-89
2024/02/08 09:42:29;;;;;;;1.27;0.60;;;;;;;13.14;71.43;95709.75;4963166;28;20129;-88
2024/02/08 09:45:18;;;;;;;1.35;0.50;;;;;;;13.13;70.75;95713.44;4949206;28;20035;-87
2024/02/08 09:47:51;;;;;;;0.40;0.30;;;;;;;13.03;70.83;95699.53;4965550;28;20066;-85
2024/02/08 09:50:36;;;;;;;0.85;0.47;;;;;;;13.22;70.59;95709.81;4946361;28;20030;-87
2024/02/08 09:53:19;;;;;;;0.40;0.40;;;;;;;13.14;70.91;95704.53;4960267;28;20058;-89
2024/02/08 09:55:55;;;;;;;0.80;0.28;;;;;;;13.25;70.36;95711.84;4953329;28;20513;-85
2024/02/08 09:58:39;;;;;;;0.50;0.30;;;;;;;12.99;70.75;95682.91;4965208;28;20049;-84
2024/02/08 10:01:56;;;;;;;0.32;0.30;;;;;;;13.02;71.84;95694.59;4963893;28;20037;-88
2024/02/08 10:04:04;;;;;;;1.42;0.30;;;;;;;12.97;71.13;95695.50;4970078;28;20049;-87
2024/02/08 10:06:56;;;;;;;;;;;;;;;;;;;;;
2024/02/08 10:12:06;;;;;;;0.30;0.30;;;;;;;13.14;71.39;95683.63;4976814;28;20034;-86
2024/02/08 10:14:35;;;;;;;0.47;0.47;;;;;;;13.03;71.96;95693.53;5035482;28;20471;-87
2024/02/08 10:17:28;;;;;;;2.15;0.28;;;;;;;13.31;71.21;95686.34;4958274;28;20410;-85
2024/02/08 10:22:56;;;;;;;1.27;0.47;;;;;;;12.93;72.11;95679.63;4958007;28;20034;-89
2024/02/08 10:28:22;;;;;;;0.85;0.30;;;;;;;13.31;71.46;95683.72;4962720;28;20437;-86
2024/02/08 10:31:06;;;;;;;0.73;0.57;;;;;;;13.18;70.93;95674.09;4951522;28;20033;-88
2024/02/08 10:33:37;;;;;;;0.82;0.47;;;;;;;13.32;71.33;95663.63;5039687;28;20038;-89
2024/02/08 10:36:15;;;;;;;0.47;0.38;;;;;;;13.23;70.86;95640.00;4959141;28;20099;-83
2024/02/08 10:38:56;;;;;;;0.60;0.60;;;;;;;13.13;71.69;95645.50;4962706;28;20534;-86
2024/02/08 10:41:37;;;;;;;0.50;0.40;;;;;;;13.37;71.84;95651.22;4975113;28;20509;-84
2024/02/08 10:44:05;;;;;;;0.38;0.38;;;;;;;13.25;71.32;95645.72;4968013;28;20064;-84
2024/02/08 10:46:34;;;;;;;1.25;0.52;;;;;;;13.15;71.90;95628.44;4948497;28;20038;-80
2024/02/08 10:49:00;;;;;;;0.40;0.40;;;;;;;13.25;72.03;95646.50;4950979;28;20042;-83
2024/02/08 10:51:28;;;;;;;1.35;0.40;;;;;;;13.23;72.43;95624.31;4957248;28;20042;-83
2024/02/08 10:54:14;;;;;;;0.40;0.30;;;;;;;13.41;71.47;95646.16;4959671;28;20039;-84
2024/02/08 10:56:41;;;;;;;0.57;0.43;;;;;;;13.18;72.30;95633.09;4982818;28;20038;-82
2024/02/08 11:01:53;;;;;;;0.65;0.60;;;;;;;13.39;71.77;95636.00;4958930;28;20026;-82
2024/02/08 11:04:28;;;;;;;0.55;0.50;;;;;;;13.57;71.43;95636.06;4954355;28;20060;-82
2024/02/08 11:07:16;;;;;;;0.80;0.40;;;;;;;13.38;71.85;95628.44;4951786;28;20129;-82
2024/02/08 11:09:44;;;;;;;1.35;0.60;;;;;;;13.49;71.17;95611.44;4952324;28;20330;-83
2024/02/08 11:12:29;;;;;;;0.85;0.70;;;;;;;13.66;71.54;95621.97;4954610;28;20034;-83
2024/02/08 11:15:08;;;;;;;1.17;0.47;;;;;;;13.52;71.44;95620.50;4953573;28;20502;-82
2024/02/08 11:17:35;;;;;;;0.93;0.82;;;;;;;13.43;71.48;95618.63;4970275;28;20502;-82
2024/02/08 11:20:03;;;;;;;1.38;0.60;;;;;;;13.43;71.98;95612.63;4955350;28;20041;-83
2024/02/08 11:22:35;;;;;;;1.42;0.50;;;;;;;13.45;71.58;95613.09;4974573;28;20042;-84
2024/02/08 11:25:19;;;;;;;1.20;0.68;;;;;;;13.42;71.56;95605.88;4955796;28;20041;-86
2024/02/08 11:27:49;;;;;;;0.70;0.50;;;;;;;13.55;71.57;95606.84;4957789;28;20037;-86
2024/02/08 11:30:35;;;;;;;1.23;0.77;;;;;;;13.68;71.51;95608.59;4937784;28;20034;-82
2024/02/08 11:33:03;;;;;;;1.00;0.80;;;;;;;13.46;71.64;95604.19;4949137;28;20046;-82
2024/02/08 11:35:36;;;;;;;2.00;0.73;;;;;;;13.48;72.21;95604.66;4960916;28;20031;-82
2024/02/08 11:38:26;;;;;;;1.20;0.60;;;;;;;13.65;71.43;95602.09;4966243;28;20090;-82
2024/02/08 11:40:55;;;;;;;1.98;0.80;;;;;;;13.55;71.00;95593.75;4940752;28;20030;-85
2024/02/08 11:43:25;;;;;;;2.03;0.73;;;;;;;13.53;71.66;95586.22;4962104;28;20180;-89
2024/02/08 11:45:52;;;;;;;0.80;0.70;;;;;;;13.60;71.42;95597.00;4958632;28;20077;-85
2024/02/08 11:48:43;;;;;;;1.40;0.80;;;;;;;13.54;72.49;95589.59;4969868;28;20039;-89
2024/02/08 11:51:10;;;;;;;2.22;0.75;;;;;;;13.49;71.58;95585.28;4975419;28;20147;-85
2024/02/08 11:53:35;;;;;;;2.03;0.88;;;;;;;13.57;72.21;95589.78;4955817;28;20030;-88
2024/02/08 11:56:11;;;;;;;2.17;1.10;;;;;;;13.50;71.77;95584.19;4978671;28;20159;-86
2024/02/08 11:58:41;;;;;;;1.90;1.05;;;;;;;13.54;72.21;95579.94;4939136;28;20377;-87
2024/02/08 12:01:07;;;;;;;2.25;1.02;;;;;;;13.63;71.97;95580.72;4964704;28;20038;-86
2024/02/08 12:03:33;;;;;;;2.72;1.73;;;;;;;13.43;71.59;95558.50;4939357;28;20030;-89
2024/02/08 12:06:00;;;;;;;5.40;1.58;;;;;;;13.58;70.77;95556.56;4942494;28;20026;-86
2024/02/08 12:08:26;;;;;;;3.63;2.30;;;;;;;13.62;71.08;95573.16;4953960;28;20038;-85
2024/02/08 12:10:52;;;;;;;6.53;2.33;;;;;;;13.62;72.22;95573.97;4965057;28;20505;-87
2024/02/08 12:13:38;;;;;;;5.47;2.75;;;;;;;13.64;71.65;95571.03;4943810;28;20046;-86
2024/02/08 12:16:04;;;;;;;5.30;2.70;;;;;;;13.41;72.02;95555.41;4940492;28;20514;-87
2024/02/08 12:18:29;;;;;;;9.88;3.30;;;;;;;13.53;72.36;95567.16;4955526;28;20035;-87
2024/02/08 12:21:01;;;;;;;7.68;3.78;;;;;;;13.49;72.03;95554.69;4971843;28;20035;-88
2024/02/08 12:23:35;;;;;;;14.73;4.10;;;;;;;13.78;71.19;95565.69;4957421;28;20031;-86
2024/02/08 12:26:06;;;;;;;14.73;5.03;;;;;;;13.70;72.05;95563.81;4955797;28;20038;-85
2024/02/08 12:28:37;;;;;;;10.50;4.00;;;;;;;13.75;71.65;95556.59;4968207;28;20031;-87
2024/02/08 12:31:07;;;;;;;12.77;4.85;;;;;;;13.86;71.26;95552.63;4958175;28;20030;-86
2024/02/08 12:33:33;;;;;;;12.52;4.45;;;;;;;13.85;71.40;95547.72;4939726;28;20038;-90
2024/02/08 12:35:59;;;;;;;11.68;4.40;;;;;;;13.85;71.91;95545.09;4951860;28;20043;-86
2024/02/08 12:38:26;;;;;;;10.75;4.05;;;;;;;13.71;72.30;95553.06;4953136;28;20092;-89
2024/02/08 12:40:51;;;;;;;15.70;4.68;;;;;;;13.82;71.88;95543.84;4955634;28;20457;-86
2024/02/08 12:43:19;;;;;;;15.07;5.32;;;;;;;13.56;73.26;95543.78;4965514;28;20281;-87
2024/02/08 12:45:54;;;;;;;15.70;4.75;;;;;;;13.64;72.96;95547.47;4958650;28;20034;-85
2024/02/08 12:48:20;;;;;;;13.40;4.97;;;;;;;13.73;71.48;95529.22;4954261;28;20576;-87
2024/02/08 12:50:53;;;;;;;14.93;5.25;;;;;;;13.83;71.23;95531.53;4958077;28;20045;-86
2024/02/08 12:53:19;;;;;;;14.93;4.85;;;;;;;13.98;71.15;95549.44;4938810;28;20035;-90
2024/02/08 12:55:47;;;;;;;8.90;4.40;;;;;;;13.72;71.58;95525.06;4951471;28;20033;-86
2024/02/08 12:58:16;;;;;;;13.80;4.82;;;;;;;13.76;72.23;95521.53;4971900;28;20030;-89
2024/02/08 13:00:45;;;;;;;15.20;4.72;;;;;;;13.72;72.17;95530.28;4943564;28;20493;-87
2024/02/08 13:03:10;;;;;;;11.20;4.55;;;;;;;13.74;72.09;95528.88;4968251;28;20034;-89
2024/02/08 13:05:37;;;;;;;12.02;4.47;;;;;;;13.95;71.57;95526.47;4948664;28;20357;-88
2024/02/08 13:08:03;;;;;;;11.30;4.85;;;;;;;13.92;70.72;95514.00;4971131;28;20069;-89
2024/02/08 13:10:31;;;;;;;14.50;4.68;;;;;;;14.01;71.23;95521.88;4959149;28;20035;-84
2024/02/08 13:13:09;;;;;;;17.27;5.53;;;;;;;13.99;71.09;95503.84;4949340;28;20031;-88
2024/02/08 13:15:35;;;;;;;13.63;5.03;;;;;;;14.05;71.30;95507.06;4952206;28;20023;-85
2024/02/08 13:18:02;;;;;;;11.70;4.60;;;;;;;13.71;71.98;95498.13;4937249;28;20084;-89
2024/02/08 13:20:28;;;;;;;11.40;4.50;;;;;;;13.90;71.38;95508.31;4955563;28;20065;-88
2024/02/08 13:22:55;;;;;;;15.23;5.43;;;;;;;13.90;71.50;95503.09;4963613;28;20034;-88
2024/02/08 13:25:30;;;;;;;17.05;4.95;;;;;;;14.09;71.08;95509.88;4962982;28;20043;-87
2024/02/08 13:27:59;;;;;;;9.98;5.35;;;;;;;13.94;71.20;95484.91;4970516;28;20414;-88
2024/02/08 13:30:25;;;;;;;16.38;6.22;;;;;;;14.10;70.62;95493.06;4966360;28;20129;-87
2024/02/08 13:32:51;;;;;;;13.40;5.57;;;;;;;13.95;71.83;95486.44;4953078;28;20435;-87
2024/02/08 13:35:23;;;;;;;14.35;4.95;;;;;;;14.17;71.53;95493.38;4980463;28;20176;-87
2024/02/08 13:37:51;;;;;;;14.20;4.90;;;;;;;14.16;70.42;95471.69;4951424;28;20205;-87
2024/02/08 13:40:22;;;;;;;16.27;5.35;;;;;;;14.14;70.82;95480.94;4960171;28;20188;-88
2024/02/08 13:42:48;;;;;;;10.85;4.35;;;;;;;14.10;70.76;95466.91;4976480;28;20050;-84
2024/02/08 13:45:14;;;;;;;14.18;5.55;;;;;;;14.17;70.72;95469.81;4962891;28;20514;-88
2024/02/08 13:47:42;;;;;;;18.25;4.45;;;;;;;14.11;71.08;95473.69;4955334;28;20073;-85
2024/02/08 13:50:11;;;;;;;16.17;4.90;;;;;;;14.09;70.98;95481.09;4968281;28;20031;-87
2024/02/08 13:52:37;;;;;;;14.02;4.63;;;;;;;14.21;70.86;95489.09;4952874;28;20495;-86
2024/02/08 13:55:07;;;;;;;14.43;4.90;;;;;;;14.15;70.62;95477.22;4969965;28;20095;-85
2024/02/08 13:57:38;;;;;;;15.63;4.63;;;;;;;14.19;71.00;95478.16;4957845;28;20035;-86
2024/02/08 14:00:08;;;;;;;12.20;4.55;;;;;;;13.96;71.54;95467.06;4953707;28;20605;-87
2024/02/08 14:02:36;;;;;;;11.65;5.13;;;;;;;14.12;70.67;95478.63;4962667;28;20442;-88
2024/02/08 14:05:16;;;;;;;15.02;4.50;;;;;;;14.11;70.91;95473.69;4960384;28;20042;-88
2024/02/08 14:07:47;;;;;;;16.10;5.35;;;;;;;13.94;71.67;95480.44;4939582;28;20031;-86